createdAt,value
2016-12-23T00:01:04.250Z,5.69
2016-12-23T00:02:15.236Z,5.69
2016-12-23T00:03:26.414Z,5.73
2016-12-23T00:04:37.392Z,5.73
2016-12-23T00:05:48.370Z,5.7
2016-12-23T00:06:59.368Z,5.78
2016-12-23T00:08:10.353Z,5.7
2016-12-23T00:09:21.738Z,5.67
2016-12-23T00:10:32.723Z,5.7
2016-12-23T00:11:43.709Z,5.78
2016-12-23T00:12:54.692Z,5.7
2016-12-23T00:14:05.868Z,5.69
2016-12-23T00:15:16.849Z,5.69
2016-12-23T00:16:28.038Z,5.6
2016-12-23T00:17:39.027Z,5.72
2016-12-23T00:18:50.019Z,5.66
2016-12-23T00:20:01.005Z,5.72
2016-12-23T00:21:11.988Z,5.64
2016-12-23T00:22:22.971Z,5.72
2016-12-23T00:23:33.951Z,5.67
2016-12-23T00:24:44.938Z,5.57
2016-12-23T00:25:55.922Z,5.59
2016-12-23T00:27:07.108Z,5.54
2016-12-23T00:28:18.498Z,5.63
2016-12-23T00:29:29.468Z,5.54
2016-12-23T00:30:40.450Z,5.52
2016-12-23T00:31:51.635Z,5.52
2016-12-23T00:33:02.814Z,5.52
2016-12-23T00:34:13.796Z,5.51
2016-12-23T00:35:24.779Z,5.51
2016-12-23T00:36:35.766Z,5.48
2016-12-23T00:37:46.948Z,5.52
2016-12-23T00:38:57.933Z,5.46
2016-12-23T00:40:09.127Z,5.51
2016-12-23T00:41:20.115Z,5.41
2016-12-23T00:42:31.098Z,5.49
2016-12-23T00:43:42.279Z,5.41
2016-12-23T00:44:53.457Z,5.41
2016-12-23T00:46:04.437Z,5.39
2016-12-23T00:47:15.421Z,5.39
2016-12-23T00:48:26.606Z,5.41
2016-12-23T00:49:37.590Z,5.3
2016-12-23T00:50:48.574Z,5.31
2016-12-23T00:51:59.758Z,5.33
2016-12-23T00:53:10.752Z,5.34
2016-12-23T00:54:21.728Z,5.3
2016-12-23T00:55:32.721Z,5.3
2016-12-23T00:56:43.698Z,5.28
2016-12-23T00:57:54.679Z,5.23
2016-12-23T00:59:05.896Z,5.2
2016-12-23T01:00:16.929Z,5.21
2016-12-23T01:01:27.921Z,5.2
2016-12-23T01:02:39.107Z,5.26
2016-12-23T01:03:50.095Z,5.21
2016-12-23T01:05:01.086Z,5.3
2016-12-23T01:06:12.414Z,5.3
2016-12-23T01:07:23.396Z,5.3
2016-12-23T01:08:34.378Z,5.31
2016-12-23T01:09:45.774Z,5.27
2016-12-23T01:10:57.011Z,5.28
2016-12-23T01:12:08.024Z,5.28
2016-12-23T01:13:19.003Z,5.28
2016-12-23T01:14:29.992Z,5.2
2016-12-23T01:15:41.173Z,5.26
2016-12-23T01:16:52.306Z,5.27
2016-12-23T01:18:03.285Z,5.3
2016-12-23T01:19:14.262Z,5.3
2016-12-23T01:20:25.475Z,5.3
2016-12-23T01:21:36.451Z,5.33
2016-12-23T01:22:47.488Z,5.36
2016-12-23T01:23:58.472Z,5.37
2016-12-23T01:25:09.490Z,5.31
2016-12-23T01:26:20.468Z,5.34
2016-12-23T01:27:31.460Z,5.39
2016-12-23T01:28:42.751Z,5.39
2016-12-23T01:29:53.743Z,5.41
2016-12-23T01:31:04.727Z,5.42
2016-12-23T01:32:15.911Z,5.39
2016-12-23T01:33:26.899Z,5.39
2016-12-23T01:34:37.937Z,5.31
2016-12-23T01:35:49.129Z,5.42
2016-12-23T01:37:00.110Z,5.37
2016-12-23T01:38:11.293Z,5.41
2016-12-23T01:39:22.280Z,5.39
2016-12-23T01:40:33.270Z,5.41
2016-12-23T01:41:44.451Z,5.36
2016-12-23T01:42:55.429Z,5.33
2016-12-23T01:44:06.407Z,5.28
2016-12-23T01:45:17.595Z,5.34
2016-12-23T01:46:28.583Z,5.3
2016-12-23T01:47:39.569Z,5.33
2016-12-23T01:48:50.559Z,5.26
2016-12-23T01:50:01.543Z,5.28
2016-12-23T01:51:12.750Z,5.34
2016-12-23T01:52:23.735Z,5.37
2016-12-23T01:53:34.716Z,5.34
2016-12-23T01:54:46.104Z,5.37
2016-12-23T01:55:57.180Z,5.41
2016-12-23T01:57:08.163Z,5.41
2016-12-23T01:58:19.145Z,5.31
2016-12-23T01:59:30.132Z,5.42
2016-12-23T02:00:41.125Z,5.39
2016-12-23T02:01:52.153Z,5.39
2016-12-23T02:03:03.134Z,5.37
2016-12-23T02:04:14.115Z,5.39
2016-12-23T02:05:25.296Z,5.31
2016-12-23T02:06:36.475Z,5.3
2016-12-23T02:07:47.516Z,5.3
2016-12-23T02:08:58.502Z,5.3
2016-12-23T02:10:09.680Z,5.26
2016-12-23T02:11:20.657Z,5.16
2016-12-23T02:12:31.653Z,5.21
2016-12-23T02:13:42.687Z,5.18
2016-12-23T02:14:53.664Z,5.1
2016-12-23T02:16:04.648Z,5.2
2016-12-23T02:17:15.633Z,5.15
2016-12-23T02:18:26.816Z,5.18
2016-12-23T02:19:37.846Z,5.24
2016-12-23T02:20:49.033Z,5.27
2016-12-23T02:22:00.015Z,5.26
2016-12-23T02:23:11.017Z,5.23
2016-12-23T02:24:22.203Z,5.27
2016-12-23T02:25:33.238Z,5.3
2016-12-23T02:26:44.430Z,5.26
2016-12-23T02:27:55.440Z,5.31
2016-12-23T02:29:06.427Z,5.36
2016-12-23T02:30:17.418Z,5.39
2016-12-23T02:31:28.456Z,5.36
2016-12-23T02:32:39.452Z,5.34
2016-12-23T02:33:50.637Z,5.31
2016-12-23T02:35:01.627Z,5.44
2016-12-23T02:36:12.613Z,5.37
2016-12-23T02:37:23.642Z,5.34
2016-12-23T02:38:34.623Z,5.41
2016-12-23T02:39:45.611Z,5.34
2016-12-23T02:40:56.795Z,5.3
2016-12-23T02:42:07.779Z,5.28
2016-12-23T02:43:18.810Z,5.27
2016-12-23T02:44:29.825Z,5.3
2016-12-23T02:45:40.806Z,5.3
2016-12-23T02:46:51.816Z,5.2
2016-12-23T02:48:02.992Z,5.13
2016-12-23T02:49:14.026Z,5.18
2016-12-23T02:50:25.011Z,5.18
2016-12-23T02:51:36.000Z,5.08
2016-12-23T02:52:46.981Z,4.98
2016-12-23T02:53:58.171Z,4.97
2016-12-23T02:55:09.206Z,4.98
2016-12-23T02:56:20.188Z,5
2016-12-23T02:57:31.168Z,5.1
2016-12-23T02:58:42.156Z,5.12
2016-12-23T02:59:53.186Z,5.06
2016-12-23T03:01:04.216Z,5.1
2016-12-23T03:02:15.218Z,5.1
2016-12-23T03:03:26.200Z,5.1
2016-12-23T03:04:37.187Z,5.05
2016-12-23T03:05:48.168Z,5.12
2016-12-23T03:06:59.209Z,5.02
2016-12-23T03:08:10.196Z,5.08
2016-12-23T03:09:21.180Z,5.12
2016-12-23T03:10:32.166Z,5.02
2016-12-23T03:11:43.152Z,5.12
2016-12-23T03:12:54.385Z,5.03
2016-12-23T03:14:05.579Z,5.18
2016-12-23T03:15:16.762Z,5.16
2016-12-23T03:16:27.742Z,5.1
2016-12-23T03:17:38.728Z,5.21
2016-12-23T03:18:49.991Z,5.23
2016-12-23T03:20:00.980Z,5.2
2016-12-23T03:21:12.167Z,5.24
2016-12-23T03:22:23.555Z,5.13
2016-12-23T03:23:34.539Z,5.16
2016-12-23T03:24:45.575Z,5.13
2016-12-23T03:25:56.962Z,5.21
2016-12-23T03:27:07.956Z,5.2
2016-12-23T03:28:18.935Z,5.2
2016-12-23T03:29:29.925Z,5.09
2016-12-23T03:30:40.910Z,5.08
2016-12-23T03:31:52.103Z,5.09
2016-12-23T03:33:03.090Z,5
2016-12-23T03:34:14.071Z,4.97
2016-12-23T03:35:25.101Z,4.95
2016-12-23T03:36:36.285Z,5.06
2016-12-23T03:37:47.275Z,5.03
2016-12-23T03:38:58.263Z,5.1
2016-12-23T03:40:09.255Z,5.08
2016-12-23T03:41:20.307Z,5.03
2016-12-23T03:42:31.497Z,5.12
2016-12-23T03:43:42.885Z,5
2016-12-23T03:44:53.858Z,5.12
2016-12-23T03:46:04.832Z,5.08
2016-12-23T03:47:16.063Z,5
2016-12-23T03:48:27.051Z,5.02
2016-12-23T03:49:38.039Z,5
2016-12-23T03:50:49.015Z,5.05
2016-12-23T03:51:59.999Z,5.03
2016-12-23T03:53:11.441Z,5.03
2016-12-23T03:54:22.452Z,5.05
2016-12-23T03:55:33.429Z,5.08
2016-12-23T03:56:44.418Z,5.02
2016-12-23T03:57:55.608Z,5.06
2016-12-23T03:59:06.669Z,5.05
2016-12-23T04:00:17.657Z,5.06
2016-12-23T04:01:28.643Z,5.12
2016-12-23T04:02:39.627Z,5.09
2016-12-23T04:03:50.610Z,5.06
2016-12-23T04:05:01.842Z,5.03
2016-12-23T04:06:12.826Z,5.13
2016-12-23T04:07:23.815Z,5.13
2016-12-23T04:08:34.796Z,5.02
2016-12-23T04:09:46.041Z,5.1
2016-12-23T04:10:57.270Z,5.16
2016-12-23T04:12:08.254Z,5.2
2016-12-23T04:13:19.245Z,5.15
2016-12-23T04:14:30.433Z,5.1
2016-12-23T04:15:41.421Z,5.2
2016-12-23T04:16:52.457Z,5.1
2016-12-23T04:18:03.442Z,5.12
2016-12-23T04:19:14.837Z,5.2
2016-12-23T04:20:26.041Z,5.15
2016-12-23T04:21:37.031Z,5.16
2016-12-23T04:22:48.076Z,5.18
2016-12-23T04:23:59.064Z,5.13
2016-12-23T04:25:10.055Z,5.13
2016-12-23T04:26:21.033Z,5.2
2016-12-23T04:27:32.023Z,5.24
2016-12-23T04:28:43.065Z,5.13
2016-12-23T04:29:54.052Z,5.15
2016-12-23T04:31:05.039Z,5.21
2016-12-23T04:32:16.020Z,5.2
2016-12-23T04:33:27.005Z,5.12
2016-12-23T04:34:38.045Z,5.12
2016-12-23T04:35:49.265Z,5.2
2016-12-23T04:37:00.244Z,5.12
2016-12-23T04:38:11.432Z,5.16
2016-12-23T04:39:22.418Z,5.2
2016-12-23T04:40:33.397Z,5.12
2016-12-23T04:41:44.380Z,5.24
2016-12-23T04:42:55.569Z,5.12
2016-12-23T04:44:06.561Z,5.13
2016-12-23T04:45:17.547Z,5.24
2016-12-23T04:46:28.532Z,5.2
2016-12-23T04:47:39.932Z,5.2
2016-12-23T04:48:51.115Z,5.06
2016-12-23T04:50:02.099Z,5.16
2016-12-23T04:51:13.092Z,5.12
2016-12-23T04:52:24.104Z,5.2
2016-12-23T04:53:35.090Z,5.16
2016-12-23T04:54:46.081Z,5.15
2016-12-23T04:55:57.068Z,5.21
2016-12-23T04:57:08.046Z,5.21
2016-12-23T04:58:19.031Z,5.12
2016-12-23T04:59:30.016Z,5.1
2016-12-23T05:00:41.202Z,5.2
2016-12-23T05:01:52.186Z,5.06
2016-12-23T05:03:03.367Z,5.2
2016-12-23T05:04:14.345Z,5.1
2016-12-23T05:05:25.330Z,5.1
2016-12-23T05:06:36.316Z,5.1
2016-12-23T05:07:47.297Z,5
2016-12-23T05:08:58.480Z,5.06
2016-12-23T05:10:09.465Z,5.02
2016-12-23T05:11:20.452Z,5.02
2016-12-23T05:12:31.431Z,5.05
2016-12-23T05:13:42.618Z,4.98
2016-12-23T05:14:53.604Z,4.9
2016-12-23T05:16:04.644Z,5.05
2016-12-23T05:17:15.825Z,5
2016-12-23T05:18:26.808Z,4.98
2016-12-23T05:19:37.996Z,4.95
2016-12-23T05:20:48.975Z,4.92
2016-12-23T05:21:59.955Z,4.88
2016-12-23T05:23:11.140Z,4.98
2016-12-23T05:24:22.118Z,4.85
2016-12-23T05:25:33.104Z,4.95
2016-12-23T05:26:44.285Z,4.95
2016-12-23T05:27:55.265Z,4.97
2016-12-23T05:29:06.261Z,4.92
2016-12-23T05:30:17.246Z,4.92
2016-12-23T05:31:28.226Z,5
2016-12-23T05:32:39.206Z,4.97
2016-12-23T05:33:50.193Z,4.91
2016-12-23T05:35:01.180Z,4.9
2016-12-23T05:36:12.171Z,5.02
2016-12-23T05:37:23.153Z,4.95
2016-12-23T05:38:34.138Z,5
2016-12-23T05:39:45.129Z,4.94
2016-12-23T05:40:56.124Z,4.91
2016-12-23T05:42:07.125Z,5
2016-12-23T05:43:18.104Z,5.03
2016-12-23T05:44:29.098Z,5.06
2016-12-23T05:45:40.290Z,4.95
2016-12-23T05:46:51.476Z,5
2016-12-23T05:48:02.460Z,5.02
2016-12-23T05:49:13.440Z,5.02
2016-12-23T05:50:24.429Z,5.02
2016-12-23T05:51:35.615Z,5.06
2016-12-23T05:52:46.597Z,5.02
2016-12-23T05:53:57.785Z,4.94
2016-12-23T05:55:08.827Z,4.92
2016-12-23T05:56:19.811Z,5.05
2016-12-23T05:57:30.788Z,5.09
2016-12-23T05:58:41.771Z,5.03
2016-12-23T05:59:52.755Z,5.03
2016-12-23T06:01:03.792Z,5.02
2016-12-23T06:02:14.774Z,5.06
2016-12-23T06:03:25.765Z,4.97
2016-12-23T06:04:36.753Z,5.06
2016-12-23T06:05:47.939Z,5.05
2016-12-23T06:06:58.988Z,4.97
2016-12-23T06:08:09.970Z,5.1
2016-12-23T06:09:20.953Z,5.02
2016-12-23T06:10:31.938Z,5.09
2016-12-23T06:11:42.926Z,5.1
2016-12-23T06:12:53.959Z,5.1
2016-12-23T06:14:04.941Z,5.08
2016-12-23T06:15:15.921Z,5.12
2016-12-23T06:16:26.893Z,5.1
2016-12-23T06:17:37.882Z,5.05
2016-12-23T06:18:48.937Z,5.13
2016-12-23T06:19:59.924Z,5.08
2016-12-23T06:21:10.909Z,5.1
2016-12-23T06:22:21.895Z,5.03
2016-12-23T06:23:32.876Z,5.1
2016-12-23T06:24:44.112Z,5.05
2016-12-23T06:25:55.301Z,5.02
2016-12-23T06:27:06.287Z,5.13
2016-12-23T06:28:17.278Z,5.12
2016-12-23T06:29:28.257Z,5.15
2016-12-23T06:30:39.289Z,5.18
2016-12-23T06:31:50.477Z,5.13
2016-12-23T06:33:01.654Z,5.16
2016-12-23T06:34:12.644Z,5.27
2016-12-23T06:35:23.633Z,5.23
2016-12-23T06:36:34.874Z,5.12
2016-12-23T06:37:45.862Z,5.15
2016-12-23T06:38:56.845Z,5.18
2016-12-23T06:40:07.831Z,5.26
2016-12-23T06:41:18.823Z,5.23
2016-12-23T06:42:29.859Z,5.2
2016-12-23T06:43:40.871Z,5.23
2016-12-23T06:44:51.857Z,5.31
2016-12-23T06:46:02.841Z,5.28
2016-12-23T06:47:13.827Z,5.26
2016-12-23T06:48:25.055Z,5.27
2016-12-23T06:49:36.044Z,5.34
2016-12-23T06:50:47.032Z,5.3
2016-12-23T06:51:58.021Z,5.33
2016-12-23T06:53:09.009Z,5.3
2016-12-23T06:54:20.047Z,5.31
2016-12-23T06:55:31.034Z,5.31
2016-12-23T06:56:42.017Z,5.31
2016-12-23T06:57:53.196Z,5.36
2016-12-23T06:59:04.391Z,5.3
2016-12-23T07:00:15.419Z,5.27
2016-12-23T07:01:26.420Z,5.33
2016-12-23T07:02:37.401Z,5.31
2016-12-23T07:03:48.386Z,5.33
2016-12-23T07:04:59.369Z,5.31
2016-12-23T07:06:10.403Z,5.3
2016-12-23T07:07:21.394Z,5.3
2016-12-23T07:08:32.378Z,5.36
2016-12-23T07:09:43.364Z,5.3
2016-12-23T07:10:54.345Z,5.28
2016-12-23T07:12:05.376Z,5.3
2016-12-23T07:13:16.356Z,5.33
2016-12-23T07:14:27.340Z,5.28
2016-12-23T07:15:38.324Z,5.36
2016-12-23T07:16:49.330Z,5.31
2016-12-23T07:18:00.366Z,5.34
2016-12-23T07:19:11.353Z,5.27
2016-12-23T07:20:22.336Z,5.27
2016-12-23T07:21:33.318Z,5.3
2016-12-23T07:22:44.502Z,5.28
2016-12-23T07:23:55.539Z,5.31
2016-12-23T07:25:06.924Z,5.28
2016-12-23T07:26:18.099Z,5.31
2016-12-23T07:27:29.110Z,5.23
2016-12-23T07:28:40.098Z,5.27
2016-12-23T07:29:51.130Z,5.28
2016-12-23T07:31:02.311Z,5.31
2016-12-23T07:32:13.298Z,5.33
2016-12-23T07:33:24.486Z,5.3
2016-12-23T07:34:35.502Z,5.27
2016-12-23T07:35:46.738Z,5.31
2016-12-23T07:36:57.924Z,5.28
2016-12-23T07:38:08.914Z,5.33
2016-12-23T07:39:19.899Z,5.31
2016-12-23T07:40:30.934Z,5.37
2016-12-23T07:41:41.915Z,5.41
2016-12-23T07:42:52.893Z,5.44
2016-12-23T07:44:03.876Z,5.42
2016-12-23T07:45:14.921Z,5.44
2016-12-23T07:46:25.916Z,5.39
2016-12-23T07:47:36.906Z,5.42
2016-12-23T07:48:48.092Z,5.37
2016-12-23T07:49:59.081Z,5.42
2016-12-23T07:51:10.120Z,5.42
2016-12-23T07:52:21.304Z,5.39
2016-12-23T07:53:32.487Z,5.37
2016-12-23T07:54:43.882Z,5.37
2016-12-23T07:55:54.869Z,5.37
2016-12-23T07:57:05.906Z,5.39
2016-12-23T07:58:16.886Z,5.26
2016-12-23T07:59:27.873Z,5.31
2016-12-23T08:00:38.851Z,5.3
2016-12-23T08:01:50.044Z,5.26
2016-12-23T08:03:01.085Z,5.31
2016-12-23T08:04:12.268Z,5.28
2016-12-23T08:05:23.256Z,5.3
2016-12-23T08:06:34.249Z,5.34
2016-12-23T08:07:45.436Z,5.41
2016-12-23T08:08:56.472Z,5.39
2016-12-23T08:10:07.457Z,5.36
2016-12-23T08:11:18.439Z,5.37
2016-12-23T08:12:29.423Z,5.39
2016-12-23T08:13:40.410Z,5.45
2016-12-23T08:14:51.450Z,5.46
2016-12-23T08:16:02.440Z,5.48
2016-12-23T08:17:13.435Z,5.37
2016-12-23T08:18:24.621Z,5.45
2016-12-23T08:19:35.795Z,5.46
2016-12-23T08:20:46.978Z,5.51
2016-12-23T08:21:57.961Z,5.51
2016-12-23T08:23:09.171Z,5.51
2016-12-23T08:24:20.159Z,5.55
2016-12-23T08:25:31.354Z,5.55
2016-12-23T08:26:42.345Z,5.55
2016-12-23T08:27:53.325Z,5.6
2016-12-23T08:29:04.313Z,5.6
2016-12-23T08:30:15.297Z,5.54
2016-12-23T08:31:26.308Z,5.62
2016-12-23T08:32:37.492Z,5.72
2016-12-23T08:33:48.467Z,5.72
2016-12-23T08:34:59.450Z,5.67
2016-12-23T08:36:10.434Z,5.69
2016-12-23T08:37:21.420Z,5.67
2016-12-23T08:38:32.407Z,5.69
2016-12-23T08:39:43.395Z,5.66
2016-12-23T08:40:54.427Z,5.66
2016-12-23T08:42:05.431Z,5.7
2016-12-23T08:43:16.610Z,5.8
2016-12-23T08:44:27.591Z,5.73
2016-12-23T08:45:38.594Z,5.67
2016-12-23T08:46:49.584Z,5.77
2016-12-23T08:48:00.590Z,5.73
2016-12-23T08:49:11.569Z,5.8
2016-12-23T08:50:22.551Z,5.8
2016-12-23T08:51:33.530Z,5.8
2016-12-23T08:52:44.505Z,5.8
2016-12-23T08:53:55.484Z,5.82
2016-12-23T08:55:06.466Z,5.77
2016-12-23T08:56:17.455Z,5.78
2016-12-23T08:57:28.643Z,5.8
2016-12-23T08:58:39.839Z,5.77
2016-12-23T08:59:50.825Z,5.8
2016-12-23T09:01:01.824Z,5.82
2016-12-23T09:02:13.008Z,5.88
2016-12-23T09:03:23.991Z,5.88
2016-12-23T09:04:35.177Z,5.92
2016-12-23T09:05:46.208Z,5.88
2016-12-23T09:06:57.386Z,5.98
2016-12-23T09:08:08.765Z,5.95
2016-12-23T09:09:19.748Z,5.95
2016-12-23T09:10:30.736Z,6.03
2016-12-23T09:11:41.766Z,6.02
2016-12-23T09:12:52.947Z,6
2016-12-23T09:14:03.935Z,5.98
2016-12-23T09:15:14.936Z,6.06
2016-12-23T09:16:26.120Z,6.09
2016-12-23T09:17:37.147Z,6.07
2016-12-23T09:18:48.327Z,6.14
2016-12-23T09:19:59.709Z,6.1
2016-12-23T09:21:10.704Z,6.07
2016-12-23T09:22:22.121Z,6.13
2016-12-23T09:23:33.157Z,6.13
2016-12-23T09:24:44.351Z,6.26
2016-12-23T09:25:55.331Z,6.21
2016-12-23T09:27:06.314Z,6.24
2016-12-23T09:28:17.495Z,6.24
2016-12-23T09:29:28.534Z,6.17
2016-12-23T09:30:39.713Z,6.25
2016-12-23T09:31:50.739Z,6.21
2016-12-23T09:33:01.726Z,6.33
2016-12-23T09:34:12.712Z,6.33
2016-12-23T09:35:24.103Z,6.39
2016-12-23T09:36:35.083Z,6.34
2016-12-23T09:37:46.074Z,6.29
2016-12-23T09:38:57.058Z,6.37
2016-12-23T09:40:08.097Z,6.36
2016-12-23T09:41:19.078Z,6.37
2016-12-23T09:42:30.052Z,6.28
2016-12-23T09:43:41.234Z,6.36
2016-12-23T09:44:52.219Z,6.36
2016-12-23T09:46:03.200Z,6.34
2016-12-23T09:47:14.180Z,6.36
2016-12-23T09:48:25.156Z,6.43
2016-12-23T09:49:36.137Z,6.42
2016-12-23T09:50:47.185Z,6.36
2016-12-23T09:51:58.190Z,6.43
2016-12-23T09:53:09.179Z,6.43
2016-12-23T09:54:20.159Z,6.44
2016-12-23T09:55:31.150Z,6.49
2016-12-23T09:56:42.135Z,6.51
2016-12-23T09:57:53.120Z,6.51
2016-12-23T09:59:04.101Z,6.47
2016-12-23T10:00:15.080Z,6.54
2016-12-23T10:01:26.061Z,6.49
2016-12-23T10:02:37.045Z,6.57
2016-12-23T10:03:48.238Z,6.51
2016-12-23T10:04:59.248Z,6.46
2016-12-23T10:06:10.231Z,6.51
2016-12-23T10:07:21.227Z,6.54
2016-12-23T10:08:32.217Z,6.49
2016-12-23T10:09:43.200Z,6.58
2016-12-23T10:10:54.382Z,6.55
2016-12-23T10:12:05.372Z,6.55
2016-12-23T10:13:16.355Z,6.58
2016-12-23T10:14:27.331Z,6.58
2016-12-23T10:15:38.318Z,6.61
2016-12-23T10:16:49.313Z,6.6
2016-12-23T10:18:00.292Z,6.68
2016-12-23T10:19:11.281Z,6.67
2016-12-23T10:20:22.474Z,6.62
2016-12-23T10:21:33.459Z,6.61
2016-12-23T10:22:44.440Z,6.6
2016-12-23T10:23:55.626Z,6.72
2016-12-23T10:25:06.613Z,6.7
2016-12-23T10:26:17.597Z,6.64
2016-12-23T10:27:28.597Z,6.64
2016-12-23T10:28:39.578Z,6.64
2016-12-23T10:29:50.564Z,6.72
2016-12-23T10:31:01.539Z,6.73
2016-12-23T10:32:12.525Z,6.79
2016-12-23T10:33:23.702Z,6.72
2016-12-23T10:34:34.686Z,6.82
2016-12-23T10:35:45.670Z,6.93
2016-12-23T10:36:56.882Z,6.93
2016-12-23T10:38:08.066Z,7.05
2016-12-23T10:39:19.058Z,7.09
2016-12-23T10:40:30.089Z,7.04
2016-12-23T10:41:41.075Z,7.09
2016-12-23T10:42:52.063Z,7.05
2016-12-23T10:44:03.046Z,7.03
2016-12-23T10:45:14.030Z,7.05
2016-12-23T10:46:25.068Z,7.22
2016-12-23T10:47:36.251Z,7.36
2016-12-23T10:48:47.232Z,7.29
2016-12-23T10:49:58.219Z,7.22
2016-12-23T10:51:09.400Z,7.31
2016-12-23T10:52:20.432Z,7.29
2016-12-23T10:53:31.414Z,7.3
2016-12-23T10:54:42.606Z,7.34
2016-12-23T10:55:53.604Z,7.37
2016-12-23T10:57:04.604Z,7.45
2016-12-23T10:58:15.649Z,7.45
2016-12-23T10:59:26.630Z,7.37
2016-12-23T11:00:38.021Z,7.4
2016-12-23T11:01:49.006Z,7.41
2016-12-23T11:03:00.001Z,7.33
2016-12-23T11:04:11.076Z,7.39
2016-12-23T11:05:22.061Z,7.26
2016-12-23T11:06:33.246Z,7.29
2016-12-23T11:07:44.235Z,7.33
2016-12-23T11:08:55.263Z,7.29
2016-12-23T11:10:06.273Z,7.36
2016-12-23T11:11:17.288Z,7.39
2016-12-23T11:12:28.275Z,7.52
2016-12-23T11:13:39.263Z,7.58
2016-12-23T11:14:50.304Z,7.48
2016-12-23T11:16:01.287Z,7.47
2016-12-23T11:17:12.302Z,7.47
2016-12-23T11:18:23.483Z,7.39
2016-12-23T11:19:34.474Z,7.36
2016-12-23T11:20:45.471Z,7.4
2016-12-23T11:21:56.469Z,7.45
2016-12-23T11:23:07.659Z,7.48
2016-12-23T11:24:18.674Z,7.47
2016-12-23T11:25:29.660Z,7.51
2016-12-23T11:26:40.650Z,7.55
2016-12-23T11:27:51.864Z,7.55
2016-12-23T11:29:02.846Z,7.55
2016-12-23T11:30:13.882Z,7.54
2016-12-23T11:31:24.869Z,7.61
2016-12-23T11:32:35.854Z,7.67
2016-12-23T11:33:46.840Z,7.7
2016-12-23T11:34:57.825Z,7.75
2016-12-23T11:36:08.863Z,7.75
2016-12-23T11:37:19.850Z,7.78
2016-12-23T11:38:30.830Z,7.8
2016-12-23T11:39:41.820Z,7.77
2016-12-23T11:40:52.811Z,7.88
2016-12-23T11:42:03.844Z,7.88
2016-12-23T11:43:14.827Z,7.85
2016-12-23T11:44:25.812Z,7.85
2016-12-23T11:45:36.795Z,7.83
2016-12-23T11:46:47.775Z,7.86
2016-12-23T11:47:58.807Z,7.82
2016-12-23T11:49:09.788Z,7.86
2016-12-23T11:50:20.788Z,7.88
2016-12-23T11:51:31.967Z,7.78
2016-12-23T11:52:42.952Z,7.83
2016-12-23T11:53:53.996Z,7.8
2016-12-23T11:55:05.001Z,7.91
2016-12-23T11:56:15.996Z,7.88
2016-12-23T11:57:27.003Z,7.98
2016-12-23T11:58:37.991Z,8.01
2016-12-23T11:59:49.044Z,7.92
2016-12-23T12:01:00.030Z,8.03
2016-12-23T12:02:11.017Z,7.98
2016-12-23T12:03:22.036Z,8.06
2016-12-23T12:04:33.628Z,8.06
2016-12-23T12:05:44.605Z,8.09
2016-12-23T12:06:55.604Z,8.17
2016-12-23T12:08:06.588Z,8.16
2016-12-23T12:09:17.578Z,8.19
2016-12-23T12:10:28.614Z,8.25
2016-12-23T12:11:39.598Z,8.19
2016-12-23T12:12:50.579Z,8.22
2016-12-23T12:14:01.571Z,8.19
2016-12-23T12:15:12.556Z,8.19
2016-12-23T12:16:23.542Z,8.19
2016-12-23T12:17:34.735Z,8.21
2016-12-23T12:18:45.931Z,8.13
2016-12-23T12:19:56.921Z,8.19
2016-12-23T12:21:08.165Z,8.17
2016-12-23T12:22:19.151Z,8.13
2016-12-23T12:23:30.138Z,8.16
2016-12-23T12:24:41.123Z,8.11
2016-12-23T12:25:52.104Z,8.13
2016-12-23T12:27:03.090Z,8.14
2016-12-23T12:28:14.278Z,8.14
2016-12-23T12:29:25.266Z,8.17
2016-12-23T12:30:36.298Z,8.19
2016-12-23T12:31:47.302Z,8.19
2016-12-23T12:32:58.290Z,8.19
2016-12-23T12:34:09.285Z,8.21
2016-12-23T12:35:20.327Z,8.22
2016-12-23T12:36:31.312Z,8.25
2016-12-23T12:37:42.505Z,8.31
2016-12-23T12:38:53.491Z,8.16
2016-12-23T12:40:04.675Z,8.24
2016-12-23T12:41:15.852Z,8.24
2016-12-23T12:42:27.050Z,8.17
2016-12-23T12:43:38.033Z,8.29
2016-12-23T12:44:49.018Z,8.21
2016-12-23T12:46:00.062Z,8.28
2016-12-23T12:47:11.050Z,8.22
2016-12-23T12:48:22.067Z,8.25
2016-12-23T12:49:33.079Z,8.32
2016-12-23T12:50:44.084Z,8.35
2016-12-23T12:51:55.073Z,8.36
2016-12-23T12:53:06.063Z,8.34
2016-12-23T12:54:17.044Z,8.32
2016-12-23T12:55:28.037Z,8.39
2016-12-23T12:56:39.028Z,8.4
2016-12-23T12:57:50.211Z,8.36
2016-12-23T12:59:01.211Z,8.32
2016-12-23T13:00:12.203Z,8.35
2016-12-23T13:01:23.590Z,8.42
2016-12-23T13:02:34.582Z,8.46
2016-12-23T13:03:45.560Z,8.36
2016-12-23T13:04:56.748Z,8.39
2016-12-23T13:06:08.137Z,8.35
2016-12-23T13:07:19.132Z,8.31
2016-12-23T13:08:30.118Z,8.39
2016-12-23T13:09:41.107Z,8.26
2016-12-23T13:10:52.095Z,8.31
2016-12-23T13:12:03.077Z,8.35
2016-12-23T13:13:14.063Z,8.26
2016-12-23T13:14:25.044Z,8.26
2016-12-23T13:15:36.286Z,8.26
2016-12-23T13:16:47.508Z,8.26
2016-12-23T13:17:58.692Z,8.19
2016-12-23T13:19:09.887Z,8.22
2016-12-23T13:20:20.879Z,8.17
2016-12-23T13:21:31.857Z,8.24
2016-12-23T13:22:42.837Z,8.16
2016-12-23T13:23:53.819Z,8.11
2016-12-23T13:25:04.863Z,8.13
2016-12-23T13:26:15.852Z,8.13
2016-12-23T13:27:27.039Z,8.17
2016-12-23T13:28:38.016Z,8.21
2016-12-23T13:29:49.026Z,8.11
2016-12-23T13:31:00.264Z,8.1
2016-12-23T13:32:11.248Z,8.09
2016-12-23T13:33:22.446Z,8.16
2016-12-23T13:34:33.431Z,8.1
2016-12-23T13:35:44.415Z,8.13
2016-12-23T13:36:55.406Z,8.19
2016-12-23T13:38:06.393Z,8.16
2016-12-23T13:39:17.578Z,8.13
2016-12-23T13:40:28.567Z,8.11
2016-12-23T13:41:39.554Z,8.16
2016-12-23T13:42:50.539Z,8.14
2016-12-23T13:44:01.729Z,8.17
2016-12-23T13:45:12.714Z,8.07
2016-12-23T13:46:23.710Z,8.22
2016-12-23T13:47:34.695Z,8.16
2016-12-23T13:48:45.885Z,8.19
2016-12-23T13:49:56.872Z,8.14
2016-12-23T13:51:08.294Z,8.14
2016-12-23T13:52:19.479Z,8.11
2016-12-23T13:53:30.465Z,8.14
2016-12-23T13:54:41.651Z,8.13
2016-12-23T13:55:52.637Z,8.13
2016-12-23T13:57:03.620Z,8.16
2016-12-23T13:58:14.602Z,8.19
2016-12-23T13:59:25.613Z,8.14
2016-12-23T14:00:36.601Z,8.22
2016-12-23T14:01:47.590Z,8.11
2016-12-23T14:02:58.596Z,8.09
2016-12-23T14:04:09.599Z,8.09
2016-12-23T14:05:20.833Z,8.1
2016-12-23T14:06:31.819Z,8.21
2016-12-23T14:07:42.812Z,8.13
2016-12-23T14:08:53.824Z,8.1
2016-12-23T14:10:04.818Z,8.13
2016-12-23T14:11:15.861Z,8.09
2016-12-23T14:12:27.054Z,8.17
2016-12-23T14:13:38.269Z,8.16
2016-12-23T14:14:49.247Z,8.1
2016-12-23T14:16:00.444Z,8.06
2016-12-23T14:17:11.679Z,8.04
2016-12-23T14:18:22.672Z,7.93
2016-12-23T14:19:33.665Z,7.96
2016-12-23T14:20:44.649Z,8.09
2016-12-23T14:21:55.641Z,8.13
2016-12-23T14:23:06.709Z,8.09
2016-12-23T14:24:17.703Z,8.06
2016-12-23T14:25:28.892Z,7.93
2016-12-23T14:26:39.871Z,8.06
2016-12-23T14:27:50.878Z,8.04
2016-12-23T14:29:01.914Z,7.95
2016-12-23T14:30:13.100Z,7.95
2016-12-23T14:31:24.286Z,7.99
2016-12-23T14:32:35.303Z,8.04
2016-12-23T14:33:46.291Z,7.96
2016-12-23T14:34:57.330Z,7.98
2016-12-23T14:36:08.317Z,7.88
2016-12-23T14:37:19.296Z,7.89
2016-12-23T14:38:30.288Z,7.95
2016-12-23T14:39:41.474Z,7.83
2016-12-23T14:40:52.717Z,7.85
2016-12-23T14:42:03.924Z,7.88
2016-12-23T14:43:14.910Z,7.85
2016-12-23T14:44:25.894Z,7.86
2016-12-23T14:45:36.912Z,7.8
2016-12-23T14:46:47.943Z,7.78
2016-12-23T14:47:58.919Z,7.77
2016-12-23T14:49:09.912Z,7.8
2016-12-23T14:50:20.951Z,7.78
2016-12-23T14:51:31.935Z,7.77
2016-12-23T14:52:42.921Z,7.8
2016-12-23T14:53:53.904Z,7.73
2016-12-23T14:55:04.889Z,7.73
2016-12-23T14:56:16.129Z,7.71
2016-12-23T14:57:27.111Z,7.71
2016-12-23T14:58:38.104Z,7.55
2016-12-23T14:59:49.287Z,7.61
2016-12-23T15:01:00.268Z,7.61
2016-12-23T15:02:11.514Z,7.54
2016-12-23T15:03:22.506Z,7.56
2016-12-23T15:04:33.491Z,7.55
2016-12-23T15:05:44.468Z,7.59
2016-12-23T15:06:55.653Z,7.56
2016-12-23T15:08:06.694Z,7.48
2016-12-23T15:09:17.675Z,7.44
2016-12-23T15:10:28.664Z,7.44
2016-12-23T15:11:39.658Z,7.48
2016-12-23T15:12:50.642Z,7.51
2016-12-23T15:14:01.703Z,7.47
2016-12-23T15:15:12.690Z,7.48
2016-12-23T15:16:23.678Z,7.45
2016-12-23T15:17:34.664Z,7.36
2016-12-23T15:18:45.657Z,7.39
2016-12-23T15:19:56.689Z,7.39
2016-12-23T15:21:07.880Z,7.34
2016-12-23T15:22:18.867Z,7.26
2016-12-23T15:23:29.857Z,7.27
2016-12-23T15:24:40.857Z,7.26
2016-12-23T15:25:51.840Z,7.26
2016-12-23T15:27:02.828Z,7.26
2016-12-23T15:28:13.811Z,7.19
2016-12-23T15:29:24.789Z,7.18
2016-12-23T15:30:35.778Z,7.12
2016-12-23T15:31:46.770Z,7.15
2016-12-23T15:32:57.959Z,7.12
2016-12-23T15:34:09.345Z,7.11
2016-12-23T15:35:20.332Z,7.18
2016-12-23T15:36:31.309Z,7.12
2016-12-23T15:37:42.291Z,7.11
2016-12-23T15:38:53.484Z,7.08
2016-12-23T15:40:04.475Z,7.16
2016-12-23T15:41:15.469Z,7.08
2016-12-23T15:42:26.463Z,7.21
2016-12-23T15:43:37.648Z,7.09
2016-12-23T15:44:48.632Z,7.16
2016-12-23T15:45:59.667Z,7.09
2016-12-23T15:47:10.658Z,7.03
2016-12-23T15:48:21.646Z,7.13
2016-12-23T15:49:32.831Z,7.18
2016-12-23T15:50:44.035Z,7.03
2016-12-23T15:51:55.120Z,6.95